sensor_id;sensor_type;location;lat;lon;timestamp;P1;durP1;ratioP1;P2;durP2;ratioP2
72785;SDS011;60902;53.876;10.674;2022-07-04T00:00:01;3.95;;;1.60;;
72785;SDS011;60902;53.876;10.674;2022-07-04T00:00:12;3.63;;;1.58;;
72785;SDS011;60902;53.876;10.674;2022-07-04T00:00:24;3.50;;;1.52;;
72785;SDS011;60902;53.876;10.674;2022-07-04T00:00:36;3.58;;;1.40;;
72785;SDS011;60902;53.876;10.674;2022-07-04T00:00:47;3.50;;;1.33;;
72785;SDS011;60902;53.876;10.674;2022-07-04T00:00:58;3.55;;;1.40;;
72785;SDS011;60902;53.876;10.674;2022-07-04T00:01:14;3.78;;;1.42;;
72785;SDS011;60902;53.876;10.674;2022-07-04T00:01:25;3.80;;;1.45;;
72785;SDS011;60902;53.876;10.674;2022-07-04T00:01:36;4.07;;;1.50;;
72785;SDS011;60902;53.876;10.674;2022-07-04T00:01:47;3.83;;;1.50;;
72785;SDS011;60902;53.876;10.674;2022-07-04T00:01:58;4.28;;;1.70;;
72785;SDS011;60902;53.876;10.674;2022-07-04T00:02:12;3.95;;;1.67;;
72785;SDS011;60902;53.876;10.674;2022-07-04T00:02:24;3.75;;;1.60;;
72785;SDS011;60902;53.876;10.674;2022-07-04T00:02:35;3.80;;;1.50;;
72785;SDS011;60902;53.876;10.674;2022-07-04T00:02:49;4.57;;;1.50;;
72785;SDS011;60902;53.876;10.674;2022-07-04T00:03:03;4.72;;;1.50;;
72785;SDS011;60902;53.876;10.674;2022-07-04T00:03:15;3.78;;;1.40;;
72785;SDS011;60902;53.876;10.674;2022-07-04T00:03:26;3.60;;;1.45;;
72785;SDS011;60902;53.876;10.674;2022-07-04T00:03:37;3.40;;;1.50;;
72785;SDS011;60902;53.876;10.674;2022-07-04T00:03:48;3.63;;;1.67;;
72785;SDS011;60902;53.876;10.674;2022-07-04T00:04:02;3.92;;;1.60;;
72785;SDS011;60902;53.876;10.674;2022-07-04T00:04:14;4.10;;;1.42;;
72785;SDS011;60902;53.876;10.674;2022-07-04T00:04:25;4.00;;;1.40;;
72785;SDS011;60902;53.876;10.674;2022-07-04T00:04:36;4.05;;;1.60;;
72785;SDS011;60902;53.876;10.674;2022-07-04T00:04:48;3.78;;;1.55;;
72785;SDS011;60902;53.876;10.674;2022-07-04T00:04:59;4.05;;;2.08;;
72785;SDS011;60902;53.876;10.674;2022-07-04T00:05:11;3.88;;;2.00;;
72785;SDS011;60902;53.876;10.674;2022-07-04T00:05:25;4.03;;;1.75;;
72785;SDS011;60902;53.876;10.674;2022-07-04T00:05:36;4.00;;;1.80;;
72785;SDS011;60902;53.876;10.674;2022-07-04T00:05:48;3.67;;;1.60;;
72785;SDS011;60902;53.876;10.674;2022-07-04T00:05:59;3.25;;;1.30;;
72785;SDS011;60902;53.876;10.674;2022-07-04T00:06:13;3.47;;;1.25;;
72785;SDS011;60902;53.876;10.674;2022-07-04T00:06:24;3.72;;;1.33;;
72785;SDS011;60902;53.876;10.674;2022-07-04T00:06:36;3.63;;;1.40;;
72785;SDS011;60902;53.876;10.674;2022-07-04T00:06:47;3.50;;;1.50;;
72785;SDS011;60902;53.876;10.674;2022-07-04T00:06:59;4.22;;;1.50;;
72785;SDS011;60902;53.876;10.674;2022-07-04T00:07:10;4.68;;;1.50;;
72785;SDS011;60902;53.876;10.674;2022-07-04T00:07:22;4.75;;;1.48;;
72785;SDS011;60902;53.876;10.674;2022-07-04T00:07:33;3.67;;;1.25;;
72785;SDS011;60902;53.876;10.674;2022-07-04T00:07:44;3.88;;;1.40;;
72785;SDS011;60902;53.876;10.674;2022-07-04T00:08:02;3.95;;;1.65;;
72785;SDS011;60902;53.876;10.674;2022-07-04T00:08:13;3.97;;;1.63;;
72785;SDS011;60902;53.876;10.674;2022-07-04T00:08:25;4.03;;;1.65;;
72785;SDS011;60902;53.876;10.674;2022-07-04T00:08:36;3.85;;;1.55;;
72785;SDS011;60902;53.876;10.674;2022-07-04T00:08:47;3.92;;;1.50;;
72785;SDS011;60902;53.876;10.674;2022-07-04T00:08:58;3.58;;;1.50;;
72785;SDS011;60902;53.876;10.674;2022-07-04T00:09:09;3.33;;;1.40;;
72785;SDS011;60902;53.876;10.674;2022-07-04T00:09:23;3.40;;;1.40;;
72785;SDS011;60902;53.876;10.674;2022-07-04T00:09:36;3.92;;;1.38;;
72785;SDS011;60902;53.876;10.674;2022-07-04T00:09:48;4.05;;;1.50;;
72785;SDS011;60902;53.876;10.674;2022-07-04T00:10:00;3.95;;;1.60;;
72785;SDS011;60902;53.876;10.674;2022-07-04T00:10:12;3.80;;;1.55;;
72785;SDS011;60902;53.876;10.674;2022-07-04T00:10:24;3.75;;;1.60;;
72785;SDS011;60902;53.876;10.674;2022-07-04T00:10:35;3.67;;;1.55;;
72785;SDS011;60902;53.876;10.674;2022-07-04T00:10:47;3.33;;;1.33;;
72785;SDS011;60902;53.876;10.674;2022-07-04T00:11:02;3.40;;;1.40;;
72785;SDS011;60902;53.876;10.674;2022-07-04T00:11:16;4.80;;;1.80;;
72785;SDS011;60902;53.876;10.674;2022-07-04T00:11:27;4.82;;;1.65;;
72785;SDS011;60902;53.876;10.674;2022-07-04T00:11:38;4.03;;;1.38;;
72785;SDS011;60902;53.876;10.674;2022-07-04T00:11:49;3.78;;;1.63;;
72785;SDS011;60902;53.876;10.674;2022-07-04T00:12:01;3.83;;;1.67;;
72785;SDS011;60902;53.876;10.674;2022-07-04T00:12:12;3.77;;;1.63;;
72785;SDS011;60902;53.876;10.674;2022-07-04T00:12:23;3.87;;;1.50;;
72785;SDS011;60902;53.876;10.674;2022-07-04T00:12:35;3.70;;;1.50;;
72785;SDS011;60902;53.876;10.674;2022-07-04T00:12:49;4.00;;;1.58;;
72785;SDS011;60902;53.876;10.674;2022-07-04T00:13:00;4.10;;;1.52;;
72785;SDS011;60902;53.876;10.674;2022-07-04T00:13:12;4.13;;;1.73;;
72785;SDS011;60902;53.876;10.674;2022-07-04T00:13:23;4.13;;;1.75;;
72785;SDS011;60902;53.876;10.674;2022-07-04T00:13:34;4.00;;;1.70;;
72785;SDS011;60902;53.876;10.674;2022-07-04T00:13:45;3.80;;;1.60;;
72785;SDS011;60902;53.876;10.674;2022-07-04T00:13:56;3.80;;;1.50;;
72785;SDS011;60902;53.876;10.674;2022-07-04T00:14:08;3.55;;;1.38;;
72785;SDS011;60902;53.876;10.674;2022-07-04T00:14:21;3.75;;;1.55;;
72785;SDS011;60902;53.876;10.674;2022-07-04T00:14:32;3.65;;;1.50;;
72785;SDS011;60902;53.876;10.674;2022-07-04T00:14:43;3.42;;;1.40;;
72785;SDS011;60902;53.876;10.674;2022-07-04T00:14:54;3.58;;;1.33;;
72785;SDS011;60902;53.876;10.674;2022-07-04T00:15:05;3.80;;;1.42;;
72785;SDS011;60902;53.876;10.674;2022-07-04T00:15:17;4.25;;;1.52;;
72785;SDS011;60902;53.876;10.674;2022-07-04T00:15:29;4.45;;;1.60;;
72785;SDS011;60902;53.876;10.674;2022-07-04T00:15:40;4.18;;;1.60;;
72785;SDS011;60902;53.876;10.674;2022-07-04T00:15:52;3.63;;;1.45;;
72785;SDS011;60902;53.876;10.674;2022-07-04T00:16:04;3.70;;;1.60;;
72785;SDS011;60902;53.876;10.674;2022-07-04T00:16:18;3.78;;;1.50;;
72785;SDS011;60902;53.876;10.674;2022-07-04T00:16:29;3.80;;;1.35;;
72785;SDS011;60902;53.876;10.674;2022-07-04T00:16:40;3.58;;;1.30;;
72785;SDS011;60902;53.876;10.674;2022-07-04T00:16:53;3.50;;;1.40;;
72785;SDS011;60902;53.876;10.674;2022-07-04T00:17:06;3.40;;;1.42;;
72785;SDS011;60902;53.876;10.674;2022-07-04T00:17:17;3.50;;;1.40;;
72785;SDS011;60902;53.876;10.674;2022-07-04T00:17:28;3.45;;;1.38;;
72785;SDS011;60902;53.876;10.674;2022-07-04T00:17:39;3.42;;;1.30;;
72785;SDS011;60902;53.876;10.674;2022-07-04T00:17:51;3.42;;;1.35;;
72785;SDS011;60902;53.876;10.674;2022-07-04T00:18:02;3.55;;;1.30;;
72785;SDS011;60902;53.876;10.674;2022-07-04T00:18:13;4.28;;;1.48;;
72785;SDS011;60902;53.876;10.674;2022-07-04T00:18:24;4.25;;;1.60;;
72785;SDS011;60902;53.876;10.674;2022-07-04T00:18:36;4.18;;;1.70;;
72785;SDS011;60902;53.876;10.674;2022-07-04T00:18:49;3.45;;;1.35;;
72785;SDS011;60902;53.876;10.674;2022-07-04T00:19:00;3.50;;;1.50;;
72785;SDS011;60902;53.876;10.674;2022-07-04T00:19:11;3.95;;;1.52;;
72785;SDS011;60902;53.876;10.674;2022-07-04T00:19:22;4.50;;;1.58;;
72785;SDS011;60902;53.876;10.674;2022-07-04T00:19:35;4.18;;;1.35;;
72785;SDS011;60902;53.876;10.674;2022-07-04T00:19:47;3.47;;;1.30;;
72785;SDS011;60902;53.876;10.674;2022-07-04T00:20:05;3.17;;;1.20;;
72785;SDS011;60902;53.876;10.674;2022-07-04T00:20:17;3.40;;;1.30;;
72785;SDS011;60902;53.876;10.674;2022-07-04T00:20:29;3.70;;;1.50;;
72785;SDS011;60902;53.876;10.674;2022-07-04T00:20:40;3.70;;;1.58;;
72785;SDS011;60902;53.876;10.674;2022-07-04T00:20:51;3.90;;;1.67;;
72785;SDS011;60902;53.876;10.674;2022-07-04T00:21:03;4.05;;;1.60;;
72785;SDS011;60902;53.876;10.674;2022-07-04T00:21:17;4.47;;;1.55;;
72785;SDS011;60902;53.876;10.674;2022-07-04T00:21:29;5.07;;;1.50;;
72785;SDS011;60902;53.876;10.674;2022-07-04T00:21:40;4.32;;;1.50;;
72785;SDS011;60902;53.876;10.674;2022-07-04T00:21:53;3.63;;;1.60;;
72785;SDS011;60902;53.876;10.674;2022-07-04T00:22:04;3.60;;;1.45;;
72785;SDS011;60902;53.876;10.674;2022-07-04T00:22:18;3.45;;;1.40;;
72785;SDS011;60902;53.876;10.674;2022-07-04T00:22:29;3.40;;;1.25;;
72785;SDS011;60902;53.876;10.674;2022-07-04T00:22:42;3.42;;;1.27;;
72785;SDS011;60902;53.876;10.674;2022-07-04T00:22:57;3.75;;;1.55;;
72785;SDS011;60902;53.876;10.674;2022-07-04T00:23:08;4.00;;;1.67;;
72785;SDS011;60902;53.876;10.674;2022-07-04T00:23:19;4.00;;;1.60;;
72785;SDS011;60902;53.876;10.674;2022-07-04T00:23:30;3.53;;;1.40;;
72785;SDS011;60902;53.876;10.674;2022-07-04T00:23:41;3.53;;;1.30;;
72785;SDS011;60902;53.876;10.674;2022-07-04T00:23:52;3.75;;;1.30;;
72785;SDS011;60902;53.876;10.674;2022-07-04T00:24:05;4.22;;;1.30;;
72785;SDS011;60902;53.876;10.674;2022-07-04T00:24:19;4.30;;;1.42;;
72785;SDS011;60902;53.876;10.674;2022-07-04T00:24:30;4.07;;;1.50;;
72785;SDS011;60902;53.876;10.674;2022-07-04T00:24:41;4.30;;;1.55;;
72785;SDS011;60902;53.876;10.674;2022-07-04T00:24:52;4.38;;;1.75;;
72785;SDS011;60902;53.876;10.674;2022-07-04T00:25:03;4.30;;;1.85;;
72785;SDS011;60902;53.876;10.674;2022-07-04T00:25:21;3.92;;;1.80;;
72785;SDS011;60902;53.876;10.674;2022-07-04T00:25:32;3.53;;;1.60;;
72785;SDS011;60902;53.876;10.674;2022-07-04T00:25:44;3.63;;;1.52;;
72785;SDS011;60902;53.876;10.674;2022-07-04T00:25:55;3.70;;;1.50;;
72785;SDS011;60902;53.876;10.674;2022-07-04T00:26:06;3.72;;;1.40;;
72785;SDS011;60902;53.876;10.674;2022-07-04T00:26:17;4.15;;;1.30;;
72785;SDS011;60902;53.876;10.674;2022-07-04T00:26:28;3.88;;;1.30;;
72785;SDS011;60902;53.876;10.674;2022-07-04T00:26:40;3.88;;;1.40;;
72785;SDS011;60902;53.876;10.674;2022-07-04T00:26:51;4.05;;;1.48;;
72785;SDS011;60902;53.876;10.674;2022-07-04T00:27:02;4.00;;;1.58;;
72785;SDS011;60902;53.876;10.674;2022-07-04T00:27:14;4.30;;;1.70;;
72785;SDS011;60902;53.876;10.674;2022-07-04T00:27:25;3.63;;;1.67;;
72785;SDS011;60902;53.876;10.674;2022-07-04T00:27:37;3.67;;;1.67;;
72785;SDS011;60902;53.876;10.674;2022-07-04T00:27:48;3.58;;;1.60;;
72785;SDS011;60902;53.876;10.674;2022-07-04T00:27:59;4.07;;;1.45;;
72785;SDS011;60902;53.876;10.674;2022-07-04T00:28:10;4.00;;;1.35;;
72785;SDS011;60902;53.876;10.674;2022-07-04T00:28:21;5.47;;;1.60;;
72785;SDS011;60902;53.876;10.674;2022-07-04T00:28:35;5.28;;;1.60;;
72785;SDS011;60902;53.876;10.674;2022-07-04T00:28:46;3.92;;;1.38;;
72785;SDS011;60902;53.876;10.674;2022-07-04T00:28:57;3.83;;;1.40;;
72785;SDS011;60902;53.876;10.674;2022-07-04T00:29:08;4.00;;;1.52;;
72785;SDS011;60902;53.876;10.674;2022-07-04T00:29:19;3.42;;;1.40;;
72785;SDS011;60902;53.876;10.674;2022-07-04T00:29:31;3.45;;;1.45;;
72785;SDS011;60902;53.876;10.674;2022-07-04T00:29:46;3.53;;;1.50;;
72785;SDS011;60902;53.876;10.674;2022-07-04T00:29:58;3.78;;;1.55;;
72785;SDS011;60902;53.876;10.674;2022-07-04T00:30:09;3.47;;;1.40;;
72785;SDS011;60902;53.876;10.674;2022-07-04T00:30:23;3.65;;;1.27;;
72785;SDS011;60902;53.876;10.674;2022-07-04T00:30:34;3.70;;;1.38;;
72785;SDS011;60902;53.876;10.674;2022-07-04T00:30:45;3.90;;;1.50;;
72785;SDS011;60902;53.876;10.674;2022-07-04T00:30:56;3.63;;;1.50;;
72785;SDS011;60902;53.876;10.674;2022-07-04T00:31:07;3.42;;;1.38;;
72785;SDS011;60902;53.876;10.674;2022-07-04T00:31:20;3.40;;;1.30;;
72785;SDS011;60902;53.876;10.674;2022-07-04T00:31:32;3.70;;;1.48;;
72785;SDS011;60902;53.876;10.674;2022-07-04T00:31:45;4.03;;;1.60;;
72785;SDS011;60902;53.876;10.674;2022-07-04T00:31:56;3.90;;;1.60;;
72785;SDS011;60902;53.876;10.674;2022-07-04T00:32:08;3.75;;;1.50;;
72785;SDS011;60902;53.876;10.674;2022-07-04T00:32:19;3.72;;;1.65;;
72785;SDS011;60902;53.876;10.674;2022-07-04T00:32:32;3.50;;;1.50;;
72785;SDS011;60902;53.876;10.674;2022-07-04T00:32:43;3.30;;;1.45;;
72785;SDS011;60902;53.876;10.674;2022-07-04T00:32:54;3.50;;;1.48;;
72785;SDS011;60902;53.876;10.674;2022-07-04T00:33:10;4.10;;;1.60;;
72785;SDS011;60902;53.876;10.674;2022-07-04T00:33:22;4.40;;;1.65;;
72785;SDS011;60902;53.876;10.674;2022-07-04T00:33:33;4.40;;;1.70;;
72785;SDS011;60902;53.876;10.674;2022-07-04T00:33:44;4.32;;;1.70;;
72785;SDS011;60902;53.876;10.674;2022-07-04T00:33:55;4.30;;;1.60;;
72785;SDS011;60902;53.876;10.674;2022-07-04T00:34:06;3.78;;;1.45;;
72785;SDS011;60902;53.876;10.674;2022-07-04T00:34:18;3.55;;;1.40;;
72785;SDS011;60902;53.876;10.674;2022-07-04T00:34:32;3.40;;;1.50;;
72785;SDS011;60902;53.876;10.674;2022-07-04T00:34:43;3.47;;;1.50;;
72785;SDS011;60902;53.876;10.674;2022-07-04T00:34:57;3.50;;;1.52;;
72785;SDS011;60902;53.876;10.674;2022-07-04T00:35:08;3.63;;;1.60;;
72785;SDS011;60902;53.876;10.674;2022-07-04T00:35:21;3.58;;;1.48;;
72785;SDS011;60902;53.876;10.674;2022-07-04T00:35:32;3.88;;;1.58;;
72785;SDS011;60902;53.876;10.674;2022-07-04T00:35:43;3.50;;;1.40;;
72785;SDS011;60902;53.876;10.674;2022-07-04T00:35:55;3.75;;;1.45;;
72785;SDS011;60902;53.876;10.674;2022-07-04T00:36:06;3.60;;;1.40;;
72785;SDS011;60902;53.876;10.674;2022-07-04T00:36:17;3.75;;;1.45;;
72785;SDS011;60902;53.876;10.674;2022-07-04T00:36:28;3.45;;;1.40;;
72785;SDS011;60902;53.876;10.674;2022-07-04T00:36:39;3.90;;;1.50;;
72785;SDS011;60902;53.876;10.674;2022-07-04T00:36:50;3.85;;;1.45;;
72785;SDS011;60902;53.876;10.674;2022-07-04T00:37:01;3.85;;;1.48;;
72785;SDS011;60902;53.876;10.674;2022-07-04T00:37:12;3.53;;;1.30;;
72785;SDS011;60902;53.876;10.674;2022-07-04T00:37:24;3.50;;;1.30;;
72785;SDS011;60902;53.876;10.674;2022-07-04T00:37:35;3.47;;;1.30;;
72785;SDS011;60902;53.876;10.674;2022-07-04T00:37:48;3.42;;;1.48;;
72785;SDS011;60902;53.876;10.674;2022-07-04T00:38:02;3.83;;;1.60;;
72785;SDS011;60902;53.876;10.674;2022-07-04T00:38:13;3.78;;;1.67;;
72785;SDS011;60902;53.876;10.674;2022-07-04T00:38:24;3.90;;;1.67;;
72785;SDS011;60902;53.876;10.674;2022-07-04T00:38:34;3.90;;;1.60;;
72785;SDS011;60902;53.876;10.674;2022-07-04T00:38:45;3.97;;;1.50;;
72785;SDS011;60902;53.876;10.674;2022-07-04T00:38:56;4.07;;;1.58;;
72785;SDS011;60902;53.876;10.674;2022-07-04T00:39:08;4.22;;;1.52;;
72785;SDS011;60902;53.876;10.674;2022-07-04T00:39:19;4.10;;;1.40;;
72785;SDS011;60902;53.876;10.674;2022-07-04T00:39:33;3.92;;;1.40;;
72785;SDS011;60902;53.876;10.674;2022-07-04T00:39:44;3.75;;;1.40;;
72785;SDS011;60902;53.876;10.674;2022-07-04T00:39:55;3.90;;;1.60;;
72785;SDS011;60902;53.876;10.674;2022-07-04T00:40:07;4.15;;;1.70;;
72785;SDS011;60902;53.876;10.674;2022-07-04T00:40:18;4.00;;;1.60;;
72785;SDS011;60902;53.876;10.674;2022-07-04T00:40:30;3.80;;;1.48;;
72785;SDS011;60902;53.876;10.674;2022-07-04T00:40:41;3.30;;;1.23;;
72785;SDS011;60902;53.876;10.674;2022-07-04T00:41:03;3.47;;;1.35;;
72785;SDS011;60902;53.876;10.674;2022-07-04T00:41:19;3.65;;;1.40;;
72785;SDS011;60902;53.876;10.674;2022-07-04T00:41:32;3.70;;;1.30;;
72785;SDS011;60902;53.876;10.674;2022-07-04T00:41:48;3.88;;;1.40;;
72785;SDS011;60902;53.876;10.674;2022-07-04T00:42:14;3.38;;;1.30;;
72785;SDS011;60902;53.876;10.674;2022-07-04T00:42:25;3.17;;;1.27;;
72785;SDS011;60902;53.876;10.674;2022-07-04T00:42:36;3.63;;;1.40;;
72785;SDS011;60902;53.876;10.674;2022-07-04T00:42:48;3.78;;;1.40;;
72785;SDS011;60902;53.876;10.674;2022-07-04T00:43:00;3.60;;;1.38;;
72785;SDS011;60902;53.876;10.674;2022-07-04T00:43:11;3.40;;;1.33;;
72785;SDS011;60902;53.876;10.674;2022-07-04T00:43:23;3.33;;;1.35;;
72785;SDS011;60902;53.876;10.674;2022-07-04T00:43:34;3.38;;;1.40;;
72785;SDS011;60902;53.876;10.674;2022-07-04T00:43:59;3.72;;;1.42;;
72785;SDS011;60902;53.876;10.674;2022-07-04T00:44:11;3.80;;;1.73;;
72785;SDS011;60902;53.876;10.674;2022-07-04T00:44:25;4.00;;;1.58;;
72785;SDS011;60902;53.876;10.674;2022-07-04T00:44:39;4.20;;;1.40;;
72785;SDS011;60902;53.876;10.674;2022-07-04T00:44:52;3.90;;;1.50;;
72785;SDS011;60902;53.876;10.674;2022-07-04T00:45:03;3.78;;;1.40;;
72785;SDS011;60902;53.876;10.674;2022-07-04T00:45:18;3.92;;;1.50;;
72785;SDS011;60902;53.876;10.674;2022-07-04T00:45:30;3.63;;;1.40;;
72785;SDS011;60902;53.876;10.674;2022-07-04T00:45:41;3.53;;;1.42;;
72785;SDS011;60902;53.876;10.674;2022-07-04T00:45:52;3.58;;;1.48;;
72785;SDS011;60902;53.876;10.674;2022-07-04T00:46:03;3.60;;;1.48;;
72785;SDS011;60902;53.876;10.674;2022-07-04T00:46:15;3.50;;;1.30;;
72785;SDS011;60902;53.876;10.674;2022-07-04T00:46:26;3.75;;;1.38;;
72785;SDS011;60902;53.876;10.674;2022-07-04T00:46:37;4.05;;;1.60;;
72785;SDS011;60902;53.876;10.674;2022-07-04T00:46:52;3.80;;;1.70;;
72785;SDS011;60902;53.876;10.674;2022-07-04T00:47:14;3.50;;;1.50;;
72785;SDS011;60902;53.876;10.674;2022-07-04T00:47:29;3.80;;;1.40;;
72785;SDS011;60902;53.876;10.674;2022-07-04T00:47:40;3.90;;;1.48;;
72785;SDS011;60902;53.876;10.674;2022-07-04T00:47:54;3.80;;;1.40;;
72785;SDS011;60902;53.876;10.674;2022-07-04T00:48:05;4.00;;;1.45;;
72785;SDS011;60902;53.876;10.674;2022-07-04T00:48:20;4.45;;;1.40;;
72785;SDS011;60902;53.876;10.674;2022-07-04T00:48:31;4.35;;;1.30;;
72785;SDS011;60902;53.876;10.674;2022-07-04T00:48:43;3.50;;;1.23;;
72785;SDS011;60902;53.876;10.674;2022-07-04T00:48:54;3.47;;;1.40;;
72785;SDS011;60902;53.876;10.674;2022-07-04T00:49:05;3.85;;;1.45;;
72785;SDS011;60902;53.876;10.674;2022-07-04T00:49:17;4.03;;;1.23;;
72785;SDS011;60902;53.876;10.674;2022-07-04T00:49:28;3.78;;;1.30;;
72785;SDS011;60902;53.876;10.674;2022-07-04T00:49:39;4.25;;;1.40;;
72785;SDS011;60902;53.876;10.674;2022-07-04T00:49:50;4.18;;;1.42;;
72785;SDS011;60902;53.876;10.674;2022-07-04T00:50:02;3.70;;;1.35;;
72785;SDS011;60902;53.876;10.674;2022-07-04T00:50:14;3.40;;;1.40;;
72785;SDS011;60902;53.876;10.674;2022-07-04T00:50:25;3.47;;;1.40;;
72785;SDS011;60902;53.876;10.674;2022-07-04T00:50:36;3.42;;;1.30;;
72785;SDS011;60902;53.876;10.674;2022-07-04T00:50:48;3.70;;;1.42;;
72785;SDS011;60902;53.876;10.674;2022-07-04T00:50:59;3.80;;;1.50;;
72785;SDS011;60902;53.876;10.674;2022-07-04T00:51:10;3.70;;;1.40;;
72785;SDS011;60902;53.876;10.674;2022-07-04T00:51:22;3.90;;;1.38;;
72785;SDS011;60902;53.876;10.674;2022-07-04T00:51:33;3.95;;;1.40;;
72785;SDS011;60902;53.876;10.674;2022-07-04T00:51:45;3.83;;;1.58;;
72785;SDS011;60902;53.876;10.674;2022-07-04T00:51:57;3.63;;;1.50;;
72785;SDS011;60902;53.876;10.674;2022-07-04T00:52:09;4.22;;;1.52;;
72785;SDS011;60902;53.876;10.674;2022-07-04T00:52:22;4.05;;;1.55;;
72785;SDS011;60902;53.876;10.674;2022-07-04T00:52:33;4.00;;;1.52;;
72785;SDS011;60902;53.876;10.674;2022-07-04T00:52:59;3.78;;;1.45;;
72785;SDS011;60902;53.876;10.674;2022-07-04T00:53:13;3.70;;;1.30;;
72785;SDS011;60902;53.876;10.674;2022-07-04T00:53:25;3.53;;;1.30;;
72785;SDS011;60902;53.876;10.674;2022-07-04T00:53:36;3.40;;;1.30;;
72785;SDS011;60902;53.876;10.674;2022-07-04T00:53:47;3.70;;;1.30;;
72785;SDS011;60902;53.876;10.674;2022-07-04T00:53:59;3.90;;;1.40;;
72785;SDS011;60902;53.876;10.674;2022-07-04T00:54:10;3.78;;;1.30;;
72785;SDS011;60902;53.876;10.674;2022-07-04T00:54:24;3.85;;;1.30;;
72785;SDS011;60902;53.876;10.674;2022-07-04T00:54:37;4.18;;;1.30;;
72785;SDS011;60902;53.876;10.674;2022-07-04T00:54:49;3.78;;;1.30;;
72785;SDS011;60902;53.876;10.674;2022-07-04T00:55:00;4.10;;;1.30;;
72785;SDS011;60902;53.876;10.674;2022-07-04T00:55:12;4.10;;;1.42;;
72785;SDS011;60902;53.876;10.674;2022-07-04T00:55:25;3.50;;;1.60;;
72785;SDS011;60902;53.876;10.674;2022-07-04T00:55:36;3.60;;;1.63;;
72785;SDS011;60902;53.876;10.674;2022-07-04T00:55:49;3.50;;;1.60;;
72785;SDS011;60902;53.876;10.674;2022-07-04T00:56:01;4.23;;;1.43;;
72785;SDS011;60902;53.876;10.674;2022-07-04T00:56:12;4.65;;;1.73;;
72785;SDS011;60902;53.876;10.674;2022-07-04T00:56:23;4.07;;;1.77;;
72785;SDS011;60902;53.876;10.674;2022-07-04T00:56:36;4.22;;;1.88;;
72785;SDS011;60902;53.876;10.674;2022-07-04T00:56:48;4.07;;;1.60;;
72785;SDS011;60902;53.876;10.674;2022-07-04T00:56:59;4.05;;;1.60;;
72785;SDS011;60902;53.876;10.674;2022-07-04T00:57:13;3.67;;;1.60;;
72785;SDS011;60902;53.876;10.674;2022-07-04T00:57:26;3.38;;;1.45;;
72785;SDS011;60902;53.876;10.674;2022-07-04T00:57:40;3.58;;;1.45;;
72785;SDS011;60902;53.876;10.674;2022-07-04T00:57:53;3.63;;;1.50;;
72785;SDS011;60902;53.876;10.674;2022-07-04T00:58:10;3.80;;;1.50;;
72785;SDS011;60902;53.876;10.674;2022-07-04T00:58:25;4.00;;;1.52;;
72785;SDS011;60902;53.876;10.674;2022-07-04T00:58:41;3.78;;;1.38;;
72785;SDS011;60902;53.876;10.674;2022-07-04T00:58:52;3.63;;;1.27;;
72785;SDS011;60902;53.876;10.674;2022-07-04T00:59:04;3.92;;;1.40;;
72785;SDS011;60902;53.876;10.674;2022-07-04T00:59:15;4.20;;;1.60;;
72785;SDS011;60902;53.876;10.674;2022-07-04T00:59:28;4.20;;;1.55;;
72785;SDS011;60902;53.876;10.674;2022-07-04T00:59:39;4.15;;;1.60;;
72785;SDS011;60902;53.876;10.674;2022-07-04T00:59:53;3.78;;;1.40;;
72785;SDS011;60902;53.876;10.674;2022-07-04T01:00:11;3.50;;;1.30;;
72785;SDS011;60902;53.876;10.674;2022-07-04T01:00:59;4.25;;;1.67;;
72785;SDS011;60902;53.876;10.674;2022-07-04T01:01:17;3.80;;;1.30;;
72785;SDS011;60902;53.876;10.674;2022-07-04T01:01:43;3.88;;;1.30;;
72785;SDS011;60902;53.876;10.674;2022-07-04T01:02:38;4.45;;;1.65;;
72785;SDS011;60902;53.876;10.674;2022-07-04T01:02:52;4.43;;;1.60;;
72785;SDS011;60902;53.876;10.674;2022-07-04T01:03:08;3.85;;;1.60;;
72785;SDS011;60902;53.876;10.674;2022-07-04T01:03:23;3.83;;;1.77;;
72785;SDS011;60902;53.876;10.674;2022-07-04T01:03:54;3.40;;;1.48;;
72785;SDS011;60902;53.876;10.674;2022-07-04T01:04:14;3.47;;;1.40;;
72785;SDS011;60902;53.876;10.674;2022-07-04T01:04:25;3.47;;;1.45;;
72785;SDS011;60902;53.876;10.674;2022-07-04T01:04:37;3.50;;;1.50;;
72785;SDS011;60902;53.876;10.674;2022-07-04T01:04:48;3.63;;;1.60;;
72785;SDS011;60902;53.876;10.674;2022-07-04T01:05:00;4.18;;;1.75;;
72785;SDS011;60902;53.876;10.674;2022-07-04T01:05:11;4.07;;;1.65;;
72785;SDS011;60902;53.876;10.674;2022-07-04T01:05:22;4.25;;;1.58;;
72785;SDS011;60902;53.876;10.674;2022-07-04T01:05:34;4.25;;;1.50;;
72785;SDS011;60902;53.876;10.674;2022-07-04T01:05:46;4.05;;;1.40;;
72785;SDS011;60902;53.876;10.674;2022-07-04T01:05:57;4.03;;;1.30;;
72785;SDS011;60902;53.876;10.674;2022-07-04T01:06:10;3.70;;;1.42;;
72785;SDS011;60902;53.876;10.674;2022-07-04T01:06:21;4.00;;;1.45;;
72785;SDS011;60902;53.876;10.674;2022-07-04T01:06:32;3.67;;;1.48;;
72785;SDS011;60902;53.876;10.674;2022-07-04T01:06:44;4.07;;;1.40;;
72785;SDS011;60902;53.876;10.674;2022-07-04T01:06:55;3.92;;;1.40;;
72785;SDS011;60902;53.876;10.674;2022-07-04T01:07:06;3.75;;;1.40;;
72785;SDS011;60902;53.876;10.674;2022-07-04T01:07:18;3.90;;;1.60;;
72785;SDS011;60902;53.876;10.674;2022-07-04T01:07:29;3.90;;;1.60;;
72785;SDS011;60902;53.876;10.674;2022-07-04T01:07:40;3.78;;;1.50;;
72785;SDS011;60902;53.876;10.674;2022-07-04T01:07:52;3.72;;;1.45;;
72785;SDS011;60902;53.876;10.674;2022-07-04T01:08:05;4.05;;;1.50;;
72785;SDS011;60902;53.876;10.674;2022-07-04T01:08:16;4.03;;;1.50;;
72785;SDS011;60902;53.876;10.674;2022-07-04T01:08:27;3.53;;;1.30;;
72785;SDS011;60902;53.876;10.674;2022-07-04T01:08:40;3.70;;;1.30;;
72785;SDS011;60902;53.876;10.674;2022-07-04T01:08:52;3.58;;;1.38;;
72785;SDS011;60902;53.876;10.674;2022-07-04T01:09:03;3.88;;;1.50;;
72785;SDS011;60902;53.876;10.674;2022-07-04T01:09:15;3.88;;;1.60;;
72785;SDS011;60902;53.876;10.674;2022-07-04T01:09:26;3.72;;;1.50;;
72785;SDS011;60902;53.876;10.674;2022-07-04T01:09:37;3.42;;;1.38;;
72785;SDS011;60902;53.876;10.674;2022-07-04T01:09:48;3.45;;;1.35;;
72785;SDS011;60902;53.876;10.674;2022-07-04T01:10:00;3.78;;;1.42;;
72785;SDS011;60902;53.876;10.674;2022-07-04T01:10:12;3.70;;;1.38;;
72785;SDS011;60902;53.876;10.674;2022-07-04T01:10:24;3.50;;;1.42;;
72785;SDS011;60902;53.876;10.674;2022-07-04T01:10:36;3.70;;;1.50;;
72785;SDS011;60902;53.876;10.674;2022-07-04T01:10:47;3.67;;;1.60;;
72785;SDS011;60902;53.876;10.674;2022-07-04T01:10:58;3.65;;;1.50;;
72785;SDS011;60902;53.876;10.674;2022-07-04T01:11:09;3.67;;;1.52;;
72785;SDS011;60902;53.876;10.674;2022-07-04T01:11:20;3.67;;;1.50;;
72785;SDS011;60902;53.876;10.674;2022-07-04T01:11:31;4.22;;;1.50;;
72785;SDS011;60902;53.876;10.674;2022-07-04T01:11:42;4.28;;;1.65;;
72785;SDS011;60902;53.876;10.674;2022-07-04T01:11:53;4.43;;;1.70;;
72785;SDS011;60902;53.876;10.674;2022-07-04T01:12:06;4.05;;;1.70;;
72785;SDS011;60902;53.876;10.674;2022-07-04T01:12:26;3.83;;;1.55;;
72785;SDS011;60902;53.876;10.674;2022-07-04T01:12:38;3.50;;;1.40;;
72785;SDS011;60902;53.876;10.674;2022-07-04T01:12:49;3.20;;;1.40;;
72785;SDS011;60902;53.876;10.674;2022-07-04T01:13:04;3.28;;;1.40;;
72785;SDS011;60902;53.876;10.674;2022-07-04T01:13:18;3.55;;;1.45;;
72785;SDS011;60902;53.876;10.674;2022-07-04T01:13:30;3.65;;;1.40;;
72785;SDS011;60902;53.876;10.674;2022-07-04T01:13:41;3.80;;;1.40;;
72785;SDS011;60902;53.876;10.674;2022-07-04T01:13:54;3.83;;;1.50;;
72785;SDS011;60902;53.876;10.674;2022-07-04T01:14:05;3.83;;;1.48;;